Time;durP1;ratioP1;P1;durP2;ratioP2;P2;SDS_P1;SDS_P2;PMS_P1;PMS_P2;Temp;Humidity;BMP_temperature;BMP_pressure;BME280_temperature;BME280_humidity;BME280_pressure;Samples;Min_cycle;Max_cycle;Signal;HPM_P1;HPM_P2
2023/02/25 00:00:18;;;;;;;;;;;;;;;9.24;100.00;96809.66;5019183;28;19940;-60
2023/02/25 00:02:48;;;;;;;;;;;;;;;9.27;100.00;96821.47;5020267;28;19929;-61
2023/02/25 00:05:15;;;;;;;;;;;;;;;9.31;100.00;96816.16;5019483;28;20499;-60
2023/02/25 00:07:40;;;;;;;;;;;;;;;9.23;100.00;96815.66;5019375;28;19940;-59
2023/02/25 00:10:07;;;;;;;;;;;;;;;9.15;100.00;96822.84;5019963;28;20320;-60
2023/02/25 00:12:32;;;;;;;;;;;;;;;9.14;100.00;96813.50;4993983;28;20819;-60
2023/02/25 00:14:58;;;;;;;;;;;;;;;9.01;100.00;96805.53;5013086;28;19925;-59
2023/02/25 00:17:23;;;;;;;;;;;;;;;9.03;100.00;96816.53;4998851;28;20324;-60
2023/02/25 00:19:49;;;;;;;;;;;;;;;8.88;100.00;96819.69;4997568;28;19929;-59
2023/02/25 00:22:14;;;;;;;;;;;;;;;8.80;100.00;96816.63;5000120;28;19925;-60
2023/02/25 00:24:40;;;;;;;;;;;;;;;8.59;100.00;96808.13;4983011;28;20371;-60
2023/02/25 00:27:05;;;;;;;;;;;;;;;8.57;100.00;96814.19;4997802;28;19929;-60
2023/02/25 00:29:31;;;;;;;;;;;;;;;8.47;100.00;96823.09;5000267;28;19933;-60
2023/02/25 00:31:56;;;;;;;;;;;;;;;8.46;100.00;96819.72;5000117;28;20332;-61
2023/02/25 00:34:21;;;;;;;;;;;;;;;8.40;100.00;96830.16;4989699;28;20063;-61
2023/02/25 00:36:48;;;;;;;;;;;;;;;8.34;100.00;96825.31;4997590;28;19933;-61
2023/02/25 00:39:14;;;;;;;;;;;;;;;8.33;100.00;96828.75;5000046;28;19937;-62
2023/02/25 00:41:39;;;;;;;;;;;;;;;8.33;100.00;96815.97;5000429;28;20427;-61
2023/02/25 00:44:06;;;;;;;;;;;;;;;8.28;100.00;96818.69;4987030;28;19925;-61
2023/02/25 00:46:31;;;;;;;;;;;;;;;8.24;100.00;96803.53;5002456;28;19952;-60
2023/02/25 00:48:57;;;;;;;;;;;;;;;8.18;100.00;96804.63;5001724;28;19929;-60
2023/02/25 00:51:24;;;;;;;;;;;;;;;8.16;100.00;96780.88;5001354;28;19933;-61
2023/02/25 00:53:50;;;;;;;;;;;;;;;8.03;100.00;96796.72;4987322;28;20292;-60
2023/02/25 00:56:16;;;;;;;;;;;;;;;8.03;100.00;96804.38;5001840;28;19930;-61
2023/02/25 00:58:42;;;;;;;;;;;;;;;8.00;100.00;96792.56;4998793;28;19928;-61
2023/02/25 01:01:19;;;;;;;;;;;;;;;7.94;100.00;96780.03;4983447;28;19929;-60
2023/02/25 01:03:45;;;;;;;;;;;;;;;7.84;100.00;96773.66;4990038;28;20058;-61
2023/02/25 01:06:11;;;;;;;;;;;;;;;7.81;100.00;96766.91;5001046;28;20377;-60
2023/02/25 01:08:36;;;;;;;;;;;;;;;7.77;100.00;96765.38;4984675;28;20272;-59
2023/02/25 01:11:11;;;;;;;;;;;;;;;7.73;100.00;96750.25;4983828;28;19925;-59
2023/02/25 01:13:36;;;;;;;;;;;;;;;7.71;100.00;96757.97;5016237;28;19987;-59
2023/02/25 01:16:08;;;;;;;;;;;;;;;7.71;100.00;96767.34;5019378;28;19988;-60
2023/02/25 01:18:35;;;;;;;;;;;;;;;7.68;100.00;96770.00;5002996;28;20474;-59
2023/02/25 01:21:00;;;;;;;;;;;;;;;7.66;100.00;96782.81;5020947;28;19936;-61
2023/02/25 01:23:26;;;;;;;;;;;;;;;7.68;100.00;96792.97;5020585;28;20395;-60
2023/02/25 01:25:52;;;;;;;;;;;;;;;7.68;100.00;96795.50;5015980;28;19998;-60
2023/02/25 01:28:19;;;;;;;;;;;;;;;7.65;100.00;96800.72;5027341;28;20044;-60
2023/02/25 01:30:46;;;;;;;;;;;;;;;7.64;100.00;96817.72;5003845;28;20029;-59
2023/02/25 01:33:12;;;;;;;;;;;;;;;7.58;100.00;96817.97;5019128;28;19929;-58
2023/02/25 01:35:37;;;;;;;;;;;;;;;7.55;100.00;96807.88;5006675;28;19933;-60
2023/02/25 01:38:03;;;;;;;;;;;;;;;7.53;100.00;96811.34;5017857;28;19929;-60
2023/02/25 01:40:28;;;;;;;;;;;;;;;7.54;100.00;96825.78;5015037;28;20357;-61
2023/02/25 01:42:54;;;;;;;;;;;;;;;7.51;100.00;96838.66;5017924;28;19992;-62
2023/02/25 01:45:26;;;;;;;;;;;;;;;7.47;100.00;96852.38;4992761;28;19925;-60
2023/02/25 01:47:55;;;;;;;;;;;;;;;7.42;100.00;96854.25;5014342;28;19929;-59
2023/02/25 01:50:22;;;;;;;;;;;;;;;7.40;100.00;96858.56;5016951;28;19968;-60
2023/02/25 01:52:48;;;;;;;;;;;;;;;7.32;100.00;96866.47;5016955;28;19925;-61
2023/02/25 01:55:14;;;;;;;;;;;;;;;7.25;100.00;96873.53;5000648;28;19925;-61
2023/02/25 01:57:40;;;;;;;;;;;;;;;7.18;100.00;96876.31;5033325;28;19929;-60
2023/02/25 02:00:10;;;;;;;;;;;;;;;7.11;100.00;96880.78;5010079;28;19925;-60
2023/02/25 02:02:38;;;;;;;;;;;;;;;7.01;100.00;96891.31;5017241;28;19929;-60
2023/02/25 02:05:05;;;;;;;;;;;;;;;6.88;100.00;96890.88;5004123;28;20514;-59
2023/02/25 02:07:31;;;;;;;;;;;;;;;6.77;100.00;96880.22;5016599;28;20395;-59
2023/02/25 02:09:57;;;;;;;;;;;;;;;6.67;100.00;96873.75;5014275;28;19925;-60
2023/02/25 02:12:37;;;;;;;;;;;;;;;6.50;100.00;96876.81;5011435;28;19925;-60
2023/02/25 02:15:05;;;;;;;;;;;;;;;6.34;100.00;96868.84;5020703;28;20411;-60
2023/02/25 02:17:40;;;;;;;;;;;;;;;6.28;100.00;96873.28;4996356;28;20534;-59
2023/02/25 02:20:11;;;;;;;;;;;;;;;6.16;100.00;96859.22;5010960;28;19994;-60
2023/02/25 02:23:07;;;;;;;;;;;;;;;6.12;100.00;96867.81;5021891;28;20399;-60
2023/02/25 02:25:52;;;;;;;;;;;;;;;6.09;100.00;96867.06;4994781;28;19925;-59
2023/02/25 02:28:36;;;;;;;;;;;;;;;6.11;100.00;96853.41;5018934;28;19929;-60
2023/02/25 02:31:18;;;;;;;;;;;;;;;6.04;100.00;96849.41;5022117;28;19925;-63
2023/02/25 02:33:44;;;;;;;;;;;;;;;6.02;100.00;96855.44;5007290;28;19951;-61
2023/02/25 02:36:36;;;;;;;;;;;;;;;5.97;100.00;96847.94;5007285;28;19929;-61
2023/02/25 02:39:04;;;;;;;;;;;;;;;5.91;100.00;96845.56;4961911;28;20091;-60
2023/02/25 02:41:29;;;;;;;;;;;;;;;5.82;100.00;96838.16;4979884;28;19932;-61
2023/02/25 02:44:05;;;;;;;;;;;;;;;5.77;100.00;96851.00;4980074;28;20503;-61
2023/02/25 02:46:44;;;;;;;;;;;;;;;5.66;100.00;96847.09;4964418;28;20071;-60
2023/02/25 02:49:31;;;;;;;;;;;;;;;5.63;100.00;96845.50;4980358;28;20399;-61
2023/02/25 02:52:02;;;;;;;;;;;;;;;5.46;100.00;96843.44;4978951;28;20020;-61
2023/02/25 02:54:31;;;;;;;;;;;;;;;5.34;100.00;96841.22;4977189;28;20045;-61
2023/02/25 02:57:00;;;;;;;;;;;;;;;5.28;100.00;96855.78;4979671;28;20025;-60
2023/02/25 02:59:34;;;;;;;;;;;;;;;5.24;100.00;96855.03;4981651;28;19929;-60
2023/02/25 03:02:05;;;;;;;;;;;;;;;5.16;100.00;96853.56;4976203;28;19960;-58
2023/02/25 03:04:34;;;;;;;;;;;;;;;5.17;100.00;96867.94;4976829;28;19926;-61
2023/02/25 03:07:04;;;;;;;;;;;;;;;5.16;100.00;96866.28;4979131;28;20028;-59
2023/02/25 03:09:35;;;;;;;;;;;;;;;5.18;100.00;96880.59;4980885;28;20020;-59
2023/02/25 03:12:01;;;;;;;;;;;;;;;5.24;100.00;96885.53;4978939;28;19929;-60
2023/02/25 03:14:30;;;;;;;;;;;;;;;5.28;100.00;96915.06;4981436;28;19980;-62
2023/02/25 03:17:11;;;;;;;;;;;;;;;5.26;100.00;96909.16;5002828;28;19982;-60
2023/02/25 03:19:38;;;;;;;;;;;;;;;5.24;100.00;96938.88;5021834;28;20152;-60
2023/02/25 03:22:07;;;;;;;;;;;;;;;5.18;100.00;96935.66;5033431;28;20386;-60
2023/02/25 03:24:39;;;;;;;;;;;;;;;5.13;100.00;96940.00;5002754;28;20422;-59
2023/02/25 03:27:34;;;;;;;;;;;;;;;5.10;100.00;96953.59;5002661;28;19981;-61
2023/02/25 03:30:05;;;;;;;;;;;;;;;5.14;100.00;96950.13;4998725;28;20348;-60
2023/02/25 03:32:32;;;;;;;;;;;;;;;5.02;100.00;96963.13;4999478;28;20294;-60
2023/02/25 03:34:58;;;;;;;;;;;;;;;5.01;100.00;96972.44;4981432;28;19940;-61
2023/02/25 03:37:26;;;;;;;;;;;;;;;4.94;100.00;96982.78;5000251;28;20364;-58
2023/02/25 03:39:55;;;;;;;;;;;;;;;4.97;100.00;96980.16;4996894;28;20076;-59
2023/02/25 03:42:24;;;;;;;;;;;;;;;4.99;100.00;96973.34;4982422;28;19925;-59
2023/02/25 03:44:53;;;;;;;;;;;;;;;4.87;100.00;96971.09;4979935;28;20523;-63
2023/02/25 03:47:21;;;;;;;;;;;;;;;4.83;100.00;96967.81;4972453;28;20044;-59
2023/02/25 03:50:19;;;;;;;;;;;;;;;4.71;100.00;96968.06;4985397;28;19951;-58
2023/02/25 03:52:50;;;;;;;;;;;;;;;4.61;100.00;96956.47;4963101;28;19935;-60
2023/02/25 03:55:36;;;;;;;;;;;;;;;4.54;100.00;96963.38;4996738;28;19933;-60
2023/02/25 03:58:02;;;;;;;;;;;;;;;4.48;100.00;96948.28;4973275;28;20439;-60
2023/02/25 04:00:31;;;;;;;;;;;;;;;4.36;100.00;96958.72;4985707;28;19936;-61
2023/02/25 04:02:57;;;;;;;;;;;;;;;4.32;100.00;96951.19;5000078;28;20388;-60
2023/02/25 04:05:26;;;;;;;;;;;;;;;4.29;100.00;96933.50;4996082;28;19941;-61
2023/02/25 04:07:53;;;;;;;;;;;;;;;4.30;100.00;96938.53;5018637;28;20352;-61
2023/02/25 04:10:19;;;;;;;;;;;;;;;4.23;100.00;96915.88;5020007;28;20365;-59
2023/02/25 04:12:45;;;;;;;;;;;;;;;4.25;100.00;96930.19;5014182;28;19932;-62
2023/02/25 04:15:13;;;;;;;;;;;;;;;4.23;100.00;96937.00;5004695;28;20351;-59
2023/02/25 04:17:38;;;;;;;;;;;;;;;4.28;100.00;96954.66;5037090;28;20382;-60
2023/02/25 04:20:05;;;;;;;;;;;;;;;4.31;100.00;96941.91;5022068;28;20271;-60
2023/02/25 04:22:31;;;;;;;;;;;;;;;4.36;100.00;96953.63;5021041;28;19933;-59
2023/02/25 04:24:57;;;;;;;;;;;;;;;4.37;100.00;96952.75;5020809;28;19980;-59
2023/02/25 04:27:23;;;;;;;;;;;;;;;4.39;100.00;96934.97;5021076;28;20333;-59
2023/02/25 04:29:48;;;;;;;;;;;;;;;4.40;100.00;96941.72;5018407;28;19936;-60
2023/02/25 04:32:14;;;;;;;;;;;;;;;4.42;100.00;96943.34;5020532;28;20017;-60
2023/02/25 04:34:39;;;;;;;;;;;;;;;4.49;100.00;96942.34;5021826;28;20539;-59
2023/02/25 04:37:05;;;;;;;;;;;;;;;4.53;100.00;96968.50;5020119;28;20127;-59
2023/02/25 04:39:31;;;;;;;;;;;;;;;4.57;100.00;96963.31;5021620;28;19932;-59
2023/02/25 04:41:57;;;;;;;;;;;;;;;4.61;100.00;96953.94;5023234;28;19979;-61
2023/02/25 04:44:22;;;;;;;;;;;;;;;4.64;100.00;96945.41;5017947;28;20385;-60
2023/02/25 04:46:50;;;;;;;;;;;;;;;4.72;100.00;96929.13;5020896;28;19955;-59
2023/02/25 04:49:19;;;;;;;;;;;;;;;4.73;100.00;96922.34;5019924;28;19929;-63
2023/02/25 04:51:45;;;;;;;;;;;;;;;4.77;100.00;96924.78;5018594;28;19925;-59
2023/02/25 04:54:11;;;;;;;;;;;;;;;4.75;100.00;96920.63;5017347;28;20344;-60
2023/02/25 04:56:39;;;;;;;;;;;;;;;4.77;100.00;96908.72;5018868;28;19925;-59
2023/02/25 04:59:05;;;;;;;;;;;;;;;4.81;100.00;96905.22;5022045;28;19925;-59
2023/02/25 05:01:31;;;;;;;;;;;;;;;4.78;100.00;96895.16;5019342;28;19933;-59
2023/02/25 05:03:59;;;;;;;;;;;;;;;4.79;100.00;96917.97;5021232;28;19935;-59
2023/02/25 05:06:26;;;;;;;;;;;;;;;4.80;100.00;96922.16;5021323;28;19936;-60
2023/02/25 05:08:51;;;;;;;;;;;;;;;4.76;100.00;96905.34;5021789;28;19932;-60
2023/02/25 05:11:17;;;;;;;;;;;;;;;4.78;100.00;96901.06;5020604;28;20245;-60
2023/02/25 05:13:43;;;;;;;;;;;;;;;4.81;100.00;96915.38;5020956;28;20325;-59
2023/02/25 05:16:10;;;;;;;;;;;;;;;4.73;100.00;96902.88;5018569;28;19953;-59
2023/02/25 05:18:36;;;;;;;;;;;;;;;4.72;100.00;96895.28;5021051;28;19925;-60
2023/02/25 05:21:02;;;;;;;;;;;;;;;4.76;100.00;96912.97;5012935;28;19964;-61
2023/02/25 05:23:27;;;;;;;;;;;;;;;4.76;100.00;96907.03;5018868;28;20075;-60
2023/02/25 05:25:53;;;;;;;;;;;;;;;4.76;100.00;96912.13;5019236;28;20021;-60
2023/02/25 05:28:19;;;;;;;;;;;;;;;4.73;100.00;96913.03;5001574;28;19959;-58
2023/02/25 05:30:44;;;;;;;;;;;;;;;4.76;100.00;96962.88;5021651;28;19947;-58
2023/02/25 05:33:12;;;;;;;;;;;;;;;4.79;100.00;96932.38;5018362;28;20454;-60
2023/02/25 05:35:38;;;;;;;;;;;;;;;4.78;100.00;96935.78;5015906;28;19976;-60
2023/02/25 05:38:04;;;;;;;;;;;;;;;4.78;100.00;96933.25;5017956;28;20034;-60
2023/02/25 05:40:29;;;;;;;;;;;;;;;4.73;100.00;96920.66;5020617;28;20055;-59
2023/02/25 05:42:55;;;;;;;;;;;;;;;4.74;100.00;96937.56;4994357;28;19937;-59
2023/02/25 05:45:20;;;;;;;;;;;;;;;4.76;100.00;96929.88;5020225;28;19929;-60
2023/02/25 05:47:46;;;;;;;;;;;;;;;4.72;100.00;96931.66;5023032;28;20004;-61
2023/02/25 05:50:11;;;;;;;;;;;;;;;4.72;100.00;96954.50;5028595;28;20289;-59
2023/02/25 05:52:37;;;;;;;;;;;;;;;4.72;100.00;96963.81;5024756;28;20043;-61
2023/02/25 05:55:03;;;;;;;;;;;;;;;4.70;100.00;96958.81;5011462;28;20684;-60
2023/02/25 05:57:28;;;;;;;;;;;;;;;4.71;100.00;96967.25;5024434;28;20028;-60
2023/02/25 05:59:54;;;;;;;;;;;;;;;4.69;100.00;96971.53;5024693;28;20450;-62
2023/02/25 06:02:19;;;;;;;;;;;;;;;4.68;100.00;96974.91;5022338;28;20007;-60
2023/02/25 06:04:46;;;;;;;;;;;;;;;4.62;100.00;96970.00;5005464;28;19941;-61
2023/02/25 06:07:12;;;;;;;;;;;;;;;4.64;100.00;96966.53;5021651;28;19992;-61
2023/02/25 06:09:38;;;;;;;;;;;;;;;4.60;100.00;96968.31;5020378;28;20424;-61
2023/02/25 06:12:04;;;;;;;;;;;;;;;4.56;100.00;96965.88;5023807;28;20049;-61
2023/02/25 06:14:29;;;;;;;;;;;;;;;4.65;100.00;96952.16;5019128;28;19954;-61
2023/02/25 06:16:55;;;;;;;;;;;;;;;4.63;100.00;96967.41;5022112;28;20440;-61
2023/02/25 06:19:22;;;;;;;;;;;;;;;4.57;100.00;96968.41;5023130;28;20023;-61
2023/02/25 06:21:47;;;;;;;;;;;;;;;4.62;100.00;96963.22;5038542;28;19925;-61
2023/02/25 06:24:14;;;;;;;;;;;;;;;4.65;100.00;96973.28;5022155;28;19968;-59
2023/02/25 06:26:41;;;;;;;;;;;;;;;4.69;100.00;96976.59;5018095;28;19926;-60
2023/02/25 06:29:08;;;;;;;;;;;;;;;4.68;100.00;96982.53;5037192;28;20274;-59
2023/02/25 06:31:33;;;;;;;;;;;;;;;4.67;100.00;96984.22;5021681;28;19929;-61
2023/02/25 06:33:59;;;;;;;;;;;;;;;4.67;100.00;96989.31;5021842;28;20038;-60
2023/02/25 06:36:24;;;;;;;;;;;;;;;4.64;100.00;97012.22;5021061;28;19929;-61
2023/02/25 06:38:50;;;;;;;;;;;;;;;4.56;100.00;97006.47;5010853;28;19991;-61
2023/02/25 06:41:17;;;;;;;;;;;;;;;4.59;100.00;97007.25;5014649;28;19928;-60
2023/02/25 06:43:43;;;;;;;;;;;;;;;4.53;100.00;96997.25;5025516;28;19979;-59
2023/02/25 06:46:09;;;;;;;;;;;;;;;4.47;100.00;97009.22;5004028;28;20015;-62
2023/02/25 06:48:35;;;;;;;;;;;;;;;4.42;100.00;96983.94;5007671;28;19979;-61
2023/02/25 06:51:01;;;;;;;;;;;;;;;4.45;100.00;97011.81;5023012;28;19929;-61
2023/02/25 06:53:28;;;;;;;;;;;;;;;4.41;100.00;96981.44;4998926;28;20480;-60
2023/02/25 06:55:54;;;;;;;;;;;;;;;4.41;100.00;96987.34;5020354;28;20080;-61
2023/02/25 06:58:19;;;;;;;;;;;;;;;4.36;100.00;96993.41;4992183;28;19925;-61
2023/02/25 07:00:46;;;;;;;;;;;;;;;4.33;100.00;96993.47;5035322;28;20027;-62
2023/02/25 07:03:12;;;;;;;;;;;;;;;4.32;100.00;96995.16;5022245;28;20390;-59
2023/02/25 07:05:37;;;;;;;;;;;;;;;4.28;100.00;96995.25;5021888;28;19941;-60
2023/02/25 07:08:03;;;;;;;;;;;;;;;4.29;100.00;97007.88;5022184;28;20389;-61
2023/02/25 07:10:29;;;;;;;;;;;;;;;4.25;100.00;97025.72;5022727;28;20018;-62
2023/02/25 07:12:54;;;;;;;;;;;;;;;4.19;100.00;97038.56;5020409;28;19929;-61
2023/02/25 07:15:20;;;;;;;;;;;;;;;4.15;100.00;97050.47;5022435;28;19925;-60
2023/02/25 07:17:45;;;;;;;;;;;;;;;4.13;100.00;97049.63;5022080;28;19971;-61
2023/02/25 07:20:11;;;;;;;;;;;;;;;4.19;100.00;97043.63;5018032;28;19949;-61
2023/02/25 07:22:36;;;;;;;;;;;;;;;4.24;100.00;97067.19;5021530;28;19932;-62
2023/02/25 07:25:02;;;;;;;;;;;;;;;4.34;100.00;97064.44;5020920;28;19964;-61
2023/02/25 07:27:28;;;;;;;;;;;;;;;4.56;100.00;97075.84;5020703;28;19928;-61
2023/02/25 07:29:53;;;;;;;;;;;;;;;4.70;100.00;97070.47;5021635;28;19929;-61
2023/02/25 07:32:19;;;;;;;;;;;;;;;4.68;100.00;97066.28;5036086;28;20304;-62
2023/02/25 07:34:44;;;;;;;;;;;;;;;4.68;100.00;97066.28;5019197;28;19925;-62
2023/02/25 07:37:11;;;;;;;;;;;;;;;4.69;100.00;97089.13;5020951;28;20324;-61
2023/02/25 07:39:37;;;;;;;;;;;;;;;4.64;100.00;97088.38;5022896;28;19935;-60
2023/02/25 07:42:03;;;;;;;;;;;;;;;4.59;100.00;97088.44;5012066;28;19929;-64
2023/02/25 07:44:28;;;;;;;;;;;;;;;4.67;100.00;97100.19;5019289;28;19925;-56
2023/02/25 07:46:54;;;;;;;;;;;;;;;4.75;100.00;97090.69;5018241;28;19932;-62
2023/02/25 07:49:19;;;;;;;;;;;;;;;4.75;100.00;97090.69;5020333;28;20434;-61
2023/02/25 07:51:45;;;;;;;;;;;;;;;4.81;100.00;97081.25;5015935;28;19951;-59
2023/02/25 07:54:10;;;;;;;;;;;;;;;4.92;100.00;97081.03;5016690;28;20542;-59
2023/02/25 07:56:35;;;;;;;;;;;;;;;4.90;100.00;97092.91;5021487;28;20526;-60
2023/02/25 07:59:01;;;;;;;;;;;;;;;4.89;100.00;97114.91;5003353;28;20023;-60
2023/02/25 08:01:28;;;;;;;;;;;;;;;4.96;100.00;97103.78;5019394;28;19932;-61
2023/02/25 08:03:55;;;;;;;;;;;;;;;4.97;100.00;97105.44;5019429;28;19932;-60
2023/02/25 08:06:21;;;;;;;;;;;;;;;4.90;100.00;97101.34;5019496;28;20293;-61
2023/02/25 08:08:49;;;;;;;;;;;;;;;5.06;100.00;97109.47;5019803;28;19929;-57
2023/02/25 08:11:15;;;;;;;;;;;;;;;4.98;100.00;97116.41;5018511;28;19962;-61
2023/02/25 08:13:40;;;;;;;;;;;;;;;5.01;100.00;97116.34;5020049;28;20473;-63
2023/02/25 08:16:13;;;;;;;;;;;;;;;5.15;100.00;97134.69;5017890;28;19929;-60
2023/02/25 08:18:41;;;;;;;;;;;;;;;5.08;100.00;97123.00;5033133;28;20093;-61
2023/02/25 08:21:07;;;;;;;;;;;;;;;4.98;100.00;97124.03;5016879;28;19925;-60
2023/02/25 08:23:33;;;;;;;;;;;;;;;5.12;100.00;97116.13;5020714;28;19982;-60
2023/02/25 08:25:58;;;;;;;;;;;;;;;5.10;100.00;97131.41;5021251;28;20291;-62
2023/02/25 08:28:25;;;;;;;;;;;;;;;5.23;100.00;97112.47;5019918;28;20392;-61
2023/02/25 08:30:51;;;;;;;;;;;;;;;5.23;100.00;97104.84;5020588;28;19929;-61
2023/02/25 08:33:17;;;;;;;;;;;;;;;5.36;100.00;97116.41;5022113;28;19921;-61
2023/02/25 08:35:42;;;;;;;;;;;;;;;5.43;100.00;97124.75;5021079;28;19980;-61
2023/02/25 08:38:08;;;;;;;;;;;;;;;5.29;100.00;97119.97;5002071;28;20040;-61
2023/02/25 08:40:34;;;;;;;;;;;;;;;5.36;100.00;97126.56;5021315;28;20295;-61
2023/02/25 08:42:59;;;;;;;;;;;;;;;5.44;100.00;97116.22;5018501;28;19929;-61
2023/02/25 08:45:25;;;;;;;;;;;;;;;5.41;100.00;97103.59;5021211;28;19925;-62
2023/02/25 08:47:51;;;;;;;;;;;;;;;5.54;100.00;97099.91;4990115;28;19921;-64
2023/02/25 08:50:16;;;;;;;;;;;;;;;5.50;100.00;97111.88;5015102;28;19935;-60
2023/02/25 08:52:42;;;;;;;;;;;;;;;5.43;100.00;97124.75;5030022;28;19976;-61
2023/02/25 08:55:08;;;;;;;;;;;;;;;5.41;100.00;97093.44;5014046;28;20560;-61
2023/02/25 08:57:34;;;;;;;;;;;;;;;5.54;100.00;97117.69;5014668;28;19925;-61
2023/02/25 08:59:59;;;;;;;;;;;;;;;5.64;100.00;97131.03;5018670;28;19928;-60
2023/02/25 09:02:26;;;;;;;;;;;;;;;5.62;100.00;97110.72;5007876;28;20470;-61
2023/02/25 09:04:52;;;;;;;;;;;;;;;5.69;100.00;97116.50;5014693;28;20300;-60
2023/02/25 09:07:19;;;;;;;;;;;;;;;5.68;100.00;97104.66;5011385;28;20251;-60
2023/02/25 09:09:44;;;;;;;;;;;;;;;5.68;100.00;97114.84;5016011;28;20024;-62
2023/02/25 09:12:10;;;;;;;;;;;;;;;5.81;100.00;97111.13;5015885;28;19925;-61
2023/02/25 09:14:35;;;;;;;;;;;;;;;5.75;100.00;97098.56;5017953;28;19952;-61
2023/02/25 09:17:01;;;;;;;;;;;;;;;5.74;100.00;97119.75;5017247;28;20304;-61
2023/02/25 09:19:27;;;;;;;;;;;;;;;5.83;100.00;97122.09;5013406;28;20506;-60
2023/02/25 09:21:53;;;;;;;;;;;;;;;5.61;100.00;97078.53;5017585;28;19921;-62
2023/02/25 09:24:18;;;;;;;;;;;;;;;5.60;100.00;97125.16;5018039;28;20243;-60
2023/02/25 09:26:44;;;;;;;;;;;;;;;5.66;100.00;97125.03;4990195;28;20381;-60
2023/02/25 09:29:10;;;;;;;;;;;;;;;5.69;100.00;97127.50;4999112;28;20308;-60
2023/02/25 09:31:36;;;;;;;202.25;106.03;;;;;;;5.65;97.76;97099.63;5014591;28;20413;-61
2023/02/25 09:34:03;;;;;;;;;;;;;;;5.84;96.13;97083.91;5018447;28;20042;-62
2023/02/25 09:36:29;;;;;;;;;;;;;;;5.67;91.73;97219.94;5019264;28;19957;-59
2023/02/25 09:38:55;;;;;;;;;;;;;;;5.79;91.11;97105.22;5033834;28;19995;-58
2023/02/25 09:41:31;;;;;;;;;;;;;;;5.50;89.54;97081.38;5018332;28;20047;-59
2023/02/25 09:44:00;;;;;;;;;;;;;;;5.57;90.06;97091.38;5012608;28;19982;-61
2023/02/25 09:46:27;;;;;;;;;;;;;;;5.55;87.10;97045.66;5016204;28;20388;-60
2023/02/25 09:48:56;;;;;;;;;;;;;;;5.69;88.57;97073.28;5018351;28;20103;-60
2023/02/25 09:51:25;;;;;;;;;;;;;;;6.05;93.73;97082.56;4990104;28;20015;-59
2023/02/25 09:53:59;;;;;;;;;;;;;;;5.94;91.13;97061.66;5003641;28;19988;-59
2023/02/25 09:56:26;;;;;;;;;;;;;;;5.75;91.67;97058.72;5019209;28;19926;-61
2023/02/25 09:58:53;;;;;;;;;;;;;;;5.83;90.91;97054.25;5015891;28;19928;-59
2023/02/25 10:01:33;;;;;;;;;;;;;;;5.66;88.23;97074.19;5019159;28;19936;-60
2023/02/25 10:04:10;;;;;;;;;;;;;;;5.79;91.67;97050.13;5035713;28;20232;-60
2023/02/25 10:06:41;;;;;;;;;;;;;;;5.62;89.57;97021.75;5017696;28;19987;-61
2023/02/25 10:09:17;;;;;;;;;;;;;;;5.70;89.75;97026.63;5019198;28;20359;-60
2023/02/25 10:11:59;;;;;;;;;;;;;;;5.89;94.81;97010.91;5016491;28;19937;-60
2023/02/25 10:14:33;;;;;;;;;;;;;;;5.90;90.91;96996.47;5010281;28;19925;-60
2023/02/25 10:17:04;;;;;;;;;;;;;;;5.94;88.28;97013.34;5018863;28;19956;-61
2023/02/25 10:19:39;;;;;;;;;;;;;;;5.75;87.30;97007.03;5002859;28;19948;-59
2023/02/25 10:22:17;;;;;;;;;;;;;;;5.83;89.31;97015.28;5021137;28;19933;-58
2023/02/25 10:24:48;;;;;;;;;;;;;;;5.77;89.32;97008.63;5019614;28;19932;-61
2023/02/25 10:27:19;;;;;;;;;;;;;;;5.86;87.93;97007.56;5018281;28;20442;-61
2023/02/25 10:29:51;;;;;;;;;;;;;;;6.05;89.30;96973.19;5021229;28;20500;-61
2023/02/25 10:32:30;;;;;;;;;;;;;;;5.86;88.66;97007.56;5023589;28;19925;-60
2023/02/25 10:34:57;;;;;;;;;;;;;;;5.84;88.17;97011.88;5019315;28;20211;-61
2023/02/25 10:37:33;;;;;;;;;;;;;;;5.79;88.38;96983.19;5020086;28;20013;-60
2023/02/25 10:40:00;;;;;;;;;;;;;;;5.94;90.57;97010.78;5023098;28;19926;-60
2023/02/25 10:42:26;;;;;;;;;;;;;;;6.29;88.75;96997.91;5012824;28;20407;-61
2023/02/25 10:44:54;;;;;;;;;;;;;;;6.19;87.79;97037.25;5020908;28;19925;-61
2023/02/25 10:47:29;;;;;;;;;;;;;;;6.11;86.40;97021.31;5020995;28;19925;-62
2023/02/25 10:50:16;;;;;;;;;;;;;;;6.36;87.13;97014.72;5019995;28;20025;-60
2023/02/25 10:52:53;;;;;;;;;;;;;;;6.05;84.87;97016.41;5024028;28;19928;-60
2023/02/25 10:55:50;;;;;;;;;;;;;;;6.26;87.79;97036.19;5025890;28;19925;-57
2023/02/25 10:58:35;;;;;;;;;;;;;;;6.11;85.98;97033.25;4988464;28;20447;-60
2023/02/25 11:01:26;;;;;;;;;;;;;;;6.17;87.17;97033.06;4968124;28;19926;-60
2023/02/25 11:03:57;;;;;;;;;;;;;;;6.16;86.48;97074.63;4967038;28;20326;-57
2023/02/25 11:06:25;;;;;;;;;;;;;;;5.99;88.07;97075.06;4987413;28;19930;-63
2023/02/25 11:08:57;;;;;;;;;;;;;;;6.05;87.37;97044.41;4987146;28;20044;-59
2023/02/25 11:11:27;;;;;;;;;;;;;;;6.12;88.02;97048.44;4987103;28;19978;-59
2023/02/25 11:13:54;;;;;;;;;;;;;;;6.10;86.73;97068.00;4981911;28;20308;-58
2023/02/25 11:16:19;;;;;;;;;;;;;;;6.27;86.90;97070.94;4985611;28;19996;-59
2023/02/25 11:18:49;;;;;;;;;;;;;;;6.28;86.40;97077.69;4983329;28;20551;-59
2023/02/25 11:21:15;;;;;;;;;;;;;;;6.25;81.88;97065.03;4985217;28;19926;-59
2023/02/25 11:23:41;;;;;;;;;;;;;;;6.32;80.77;97094.53;4983921;28;19975;-59
2023/02/25 11:26:07;;;;;;;;;;;;;;;6.23;79.42;97082.09;4984193;28;19922;-59
2023/02/25 11:28:37;;;;;;;;;;;;;;;6.16;78.71;97088.19;4981183;28;19961;-59
2023/02/25 11:31:08;;;;;;;;;;;;;;;6.29;77.49;97087.00;4963864;28;19930;-59
2023/02/25 11:33:36;;;;;;;;;;;;;;;6.25;76.70;97087.09;4981977;28;19925;-58
2023/02/25 11:36:02;;;;;;;;;;;;;;;6.24;76.90;97129.53;5019191;28;20349;-60
2023/02/25 11:38:32;;;;;;;;;;;;;;;6.28;77.85;97112.50;5019140;28;19960;-58
2023/02/25 11:40:57;;;;;;;;;;;;;;;6.26;79.29;97162.59;5017817;28;19929;-61
2023/02/25 11:43:26;;;;;;;;;;;;;;;6.21;81.68;97124.53;5016147;28;20039;-60
2023/02/25 11:45:51;;;;;;;;;;;;;;;6.20;81.57;97125.41;5017183;28;19924;-61
2023/02/25 11:48:18;;;;;;;;;;;;;;;6.24;84.32;97131.22;5023607;28;19935;-60
2023/02/25 11:50:47;;;;;;;;;;;;;;;6.19;85.16;97194.16;5019429;28;19925;-59
2023/02/25 11:53:26;;;;;;;;;;;;;;;6.28;85.20;97110.75;5022028;28;19929;-61
2023/02/25 11:55:55;;;;;;;;;;;;;;;6.48;86.22;97114.50;5026091;28;19991;-58
2023/02/25 11:58:37;;;;;;;;;;;;;;;6.81;87.30;97124.59;5022648;28;19979;-60
2023/02/25 12:01:07;;;;;;;;;;;;;;;6.70;82.63;97105.41;5010891;28;20098;-61
2023/02/25 12:03:32;;;;;;;;;;;;;;;6.62;83.17;97130.25;5019768;28;19932;-63
2023/02/25 12:06:14;;;;;;;;;;;;;;;6.53;82.08;97146.59;5022555;28;19929;-61
2023/02/25 12:08:59;;;;;;;;;;;;;;;6.41;82.34;97140.09;5020122;28;19947;-59
2023/02/25 12:11:43;;;;;;;;;;;;;;;6.53;81.74;97150.84;5019323;28;19987;-60
2023/02/25 12:14:11;;;;;;;;;;;;;;;6.45;83.35;97123.03;5023170;28;20612;-59
2023/02/25 12:17:10;;;;;;;;;;;;;;;6.63;84.63;97114.91;5019388;28;19925;-61
2023/02/25 12:19:48;;;;;;;;;;;;;;;6.77;80.48;97117.06;5019836;28;19944;-66
2023/02/25 12:22:23;;;;;;;;;;;;;;;6.75;78.80;97131.53;5021927;28;19925;-61
2023/02/25 12:25:04;;;;;;;;;;;;;;;6.57;76.09;97114.25;5021635;28;19940;-59
2023/02/25 12:27:48;;;;;;;;;;;;;;;6.58;77.75;97121.81;5021433;28;20347;-55
2023/02/25 12:30:23;;;;;;;;;;;;;;;6.52;80.09;97146.63;5008723;28;19929;-61
2023/02/25 12:33:00;;;;;;;;;;;;;;;6.83;81.35;97143.19;5014243;28;20016;-57
2023/02/25 12:35:39;;;;;;;;;;;;;;;6.72;81.12;97162.19;5020757;28;19929;-61
2023/02/25 12:38:32;;;;;;;;;;;;;;;6.89;81.96;97137.94;5019083;28;19964;-61
2023/02/25 12:41:16;;;;;;;;;;;;;;;6.82;82.51;97155.97;5018407;28;20223;-61
2023/02/25 12:43:50;;;;;;;;;;;;;;;6.66;84.59;97159.84;5018919;28;20380;-62
2023/02/25 12:46:30;;;;;;;;;;;;;;;6.52;86.90;97132.19;5020260;28;20396;-61
2023/02/25 12:49:04;;;;;;;;;;;;;;;6.38;87.64;97159.72;5034119;28;20032;-61
2023/02/25 12:51:42;;;;;;;;;;;;;;;6.25;86.52;97168.53;5001850;28;19925;-61
2023/02/25 12:54:27;;;;;;;;;;;;;;;6.24;85.39;97172.78;5015455;28;20432;-60
2023/02/25 12:56:55;;;;;;;;;;;;;;;6.30;88.74;97177.72;5007329;28;19982;-60